Time;durP1;ratioP1;P1;durP2;ratioP2;P2;SDS_P1;SDS_P2;PMS_P1;PMS_P2;Temp;Humidity;BMP_temperature;BMP_pressure;BME280_temperature;BME280_humidity;BME280_pressure;Samples;Min_cycle;Max_cycle;Signal;HPM_P1;HPM_P2
2022/03/04 00:02:10;;;;;;;;;;;9.40;99.90;;;;;;4959002;28;19917;-92
2022/03/04 00:04:37;;;;;;;;;;;9.40;99.90;;;;;;4974098;28;19910;-89
2022/03/04 00:07:05;;;;;;;;;;;9.30;99.90;;;;;;4957124;28;19997;-91
2022/03/04 00:09:31;;;;;;;;;;;9.30;99.90;;;;;;4951687;29;19917;-91
2022/03/04 00:11:57;;;;;;;;;;;9.20;99.90;;;;;;4963365;28;20017;-91
2022/03/04 00:14:24;;;;;;;;;;;9.20;99.90;;;;;;4945126;29;19982;-92
2022/03/04 00:16:50;;;;;;;;;;;9.10;99.90;;;;;;4939200;29;19910;-91
2022/03/04 00:19:16;;;;;;;;;;;9.20;99.90;;;;;;4961607;28;20013;-91
2022/03/04 00:21:43;;;;;;;;;;;9.10;99.90;;;;;;4963004;28;19934;-91
2022/03/04 00:24:09;;;;;;;;;;;9.10;99.90;;;;;;4945557;29;20508;-91
2022/03/04 00:26:36;;;;;;;;;;;9.10;99.90;;;;;;4951897;29;19977;-90
2022/03/04 00:29:01;;;;;;;;;;;9.10;99.90;;;;;;4950440;28;20007;-91
2022/03/04 00:31:27;;;;;;;;;;;9.00;99.90;;;;;;4953026;29;19964;-91
2022/03/04 00:33:53;;;;;;;;;;;9.00;99.90;;;;;;4938689;29;19962;-90
2022/03/04 00:36:22;;;;;;;;;;;9.10;99.90;;;;;;4944172;29;20372;-91
2022/03/04 00:38:51;;;;;;;;;;;9.10;99.90;;;;;;4967256;28;19915;-91
2022/03/04 00:41:18;;;;;;;;;;;9.10;99.90;;;;;;4949298;28;19914;-90
2022/03/04 00:43:44;;;;;;;;;;;9.00;99.90;;;;;;4963350;28;19910;-90
2022/03/04 00:46:10;;;;;;;;;;;9.00;99.90;;;;;;4944701;29;20284;-90
2022/03/04 00:48:36;;;;;;;;;;;9.00;99.90;;;;;;4961785;28;20458;-90
2022/03/04 00:51:01;;;;;;;;;;;9.10;99.90;;;;;;4959450;28;20142;-91
2022/03/04 00:53:27;;;;;;;;;;;9.00;99.90;;;;;;4950888;28;20375;-90
2022/03/04 00:55:53;;;;;;;;;;;9.00;99.90;;;;;;4954337;28;19953;-91
2022/03/04 00:58:18;;;;;;;;;;;9.10;99.90;;;;;;4952107;28;19914;-91
2022/03/04 01:00:44;;;;;;;;;;;9.10;99.90;;;;;;4944686;28;20341;-91
2022/03/04 01:03:09;;;;;;;;;;;9.10;99.90;;;;;;4958199;28;20030;-91
2022/03/04 01:05:36;;;;;;;;;;;9.10;99.90;;;;;;4951106;28;19910;-91
2022/03/04 01:08:02;;;;;;;;;;;9.00;99.90;;;;;;4973454;28;19910;-90
2022/03/04 01:10:28;;;;;;;;;;;9.00;99.90;;;;;;4944608;29;20426;-91
2022/03/04 01:12:55;;;;;;;;;;;9.10;99.90;;;;;;4955807;28;20020;-92
2022/03/04 01:15:21;;;;;;;;;;;9.00;99.90;;;;;;4973638;28;19918;-92
2022/03/04 01:17:47;;;;;;;;;;;9.00;99.90;;;;;;4956553;28;19914;-91
2022/03/04 01:20:12;;;;;;;;;;;9.00;99.90;;;;;;4957310;28;19964;-91
2022/03/04 01:22:38;;;;;;;;;;;9.00;99.90;;;;;;4973268;28;19992;-91
2022/03/04 01:25:04;;;;;;;;;;;9.00;99.90;;;;;;4962144;28;20307;-92
2022/03/04 01:27:29;;;;;;;;;;;9.00;99.90;;;;;;4931626;28;19918;-91
2022/03/04 01:29:55;;;;;;;;;;;9.00;99.90;;;;;;4973194;28;20387;-91
2022/03/04 01:32:21;;;;;;;;;;;9.00;99.90;;;;;;4962435;28;19914;-91
2022/03/04 01:34:46;;;;;;;;;;;8.90;99.90;;;;;;4961493;28;19919;-91
2022/03/04 01:37:12;;;;;;;;;;;8.90;99.90;;;;;;4957411;28;20367;-91
2022/03/04 01:39:37;;;;;;;;;;;9.00;99.90;;;;;;4970068;28;20029;-91
2022/03/04 01:42:03;;;;;;;;;;;9.00;99.90;;;;;;4957440;28;19917;-91
2022/03/04 01:44:29;;;;;;;;;;;9.00;99.90;;;;;;4953124;29;20024;-89
2022/03/04 01:46:54;;;;;;;;;;;9.00;99.90;;;;;;4965010;28;20390;-90
2022/03/04 01:49:20;;;;;;;;;;;9.00;99.90;;;;;;4957286;28;20005;-90
2022/03/04 01:51:46;;;;;;;;;;;9.00;99.90;;;;;;4954723;28;20277;-91
2022/03/04 01:54:11;;;;;;;;;;;9.00;99.90;;;;;;4964755;28;19922;-90
2022/03/04 01:56:37;;;;;;;;;;;9.00;99.90;;;;;;4988363;28;19906;-90
2022/03/04 01:59:03;;;;;;;;;;;9.00;99.90;;;;;;4974953;28;20187;-90
2022/03/04 02:01:28;;;;;;;;;;;9.00;99.90;;;;;;4965332;28;20187;-91
2022/03/04 02:03:54;;;;;;;;;;;9.00;99.90;;;;;;4960318;28;19911;-90
2022/03/04 02:06:19;;;;;;;;;;;9.00;99.90;;;;;;4972366;28;19972;-90
2022/03/04 02:08:45;;;;;;;;;;;9.10;99.90;;;;;;4955177;28;20561;-89
2022/03/04 02:11:10;;;;;;;;;;;9.10;99.90;;;;;;4952589;28;20007;-90
2022/03/04 02:13:38;;;;;;;;;;;9.10;99.90;;;;;;4952905;28;20308;-90
2022/03/04 02:16:07;;;;;;;;;;;9.10;99.90;;;;;;4971587;28;19910;-90
2022/03/04 02:18:33;;;;;;;;;;;9.20;99.90;;;;;;4955787;28;19910;-90
2022/03/04 02:21:01;;;;;;;;;;;9.10;99.90;;;;;;4971823;28;19914;-89
2022/03/04 02:23:26;;;;;;;;;;;9.10;99.90;;;;;;4956104;28;19910;-89
2022/03/04 02:25:52;;;;;;;;;;;9.10;99.90;;;;;;4946872;28;19917;-90
2022/03/04 02:28:18;;;;;;;;;;;9.20;99.90;;;;;;4955651;28;19914;-90
2022/03/04 02:30:44;;;;;;;;;;;9.10;99.90;;;;;;4952124;29;20387;-90
2022/03/04 02:33:09;;;;;;;;;;;9.10;99.90;;;;;;4955687;28;19910;-89
2022/03/04 02:35:35;;;;;;;;;;;9.20;99.90;;;;;;4971743;28;19910;-90
2022/03/04 02:38:02;;;;;;;;;;;9.20;99.90;;;;;;4955301;28;19911;-90
2022/03/04 02:40:27;;;;;;;;;;;9.20;99.90;;;;;;4953646;28;20387;-90
2022/03/04 02:42:53;;;;;;;;;;;9.20;99.90;;;;;;4955347;28;19918;-91
2022/03/04 02:45:19;;;;;;;;;;;9.30;99.90;;;;;;4959648;28;19910;-90
2022/03/04 02:47:44;;;;;;;;;;;9.30;99.90;;;;;;4968226;28;19910;-90
2022/03/04 02:50:10;;;;;;;;;;;9.20;99.90;;;;;;4960329;28;19911;-90
2022/03/04 02:52:36;;;;;;;;;;;9.20;99.90;;;;;;4955616;28;20004;-90
2022/03/04 02:55:01;;;;;;;;;;;9.30;99.90;;;;;;4971198;28;20276;-90
2022/03/04 02:57:27;;;;;;;;;;;9.20;99.90;;;;;;4969354;28;19911;-89
2022/03/04 02:59:52;;;;;;;;;;;9.30;99.90;;;;;;4956354;28;20013;-90
2022/03/04 03:02:18;;;;;;;;;;;9.30;99.90;;;;;;4969470;28;19910;-90
2022/03/04 03:04:44;;;;;;;;;;;9.30;99.90;;;;;;4957210;28;19911;-91
2022/03/04 03:07:09;;;;;;;;;;;9.40;99.90;;;;;;4965334;28;19910;-91
2022/03/04 03:09:35;;;;;;;;;;;9.40;99.90;;;;;;4975493;28;19957;-90
2022/03/04 03:12:00;;;;;;;;;;;9.30;99.90;;;;;;4974108;28;19922;-90
2022/03/04 03:14:26;;;;;;;;;;;9.30;99.90;;;;;;4967512;28;19941;-90
2022/03/04 03:16:51;;;;;;;;;;;9.30;99.90;;;;;;4968423;28;19976;-91
2022/03/04 03:19:17;;;;;;;;;;;9.30;99.90;;;;;;4961113;28;20267;-90
2022/03/04 03:21:42;;;;;;;;;;;9.30;99.90;;;;;;4975442;28;19918;-90
2022/03/04 03:24:08;;;;;;;;;;;9.30;99.90;;;;;;4974169;28;19910;-89
2022/03/04 03:26:34;;;;;;;;;;;9.30;99.90;;;;;;4956282;28;19932;-90
2022/03/04 03:28:59;;;;;;;;;;;9.30;99.90;;;;;;4960013;28;19914;-90
2022/03/04 03:31:25;;;;;;;;;;;9.30;99.90;;;;;;4962890;28;19918;-90
2022/03/04 03:33:51;;;;;;;;;;;9.30;99.90;;;;;;4973767;28;19922;-90
2022/03/04 03:36:16;;;;;;;;;;;9.30;99.90;;;;;;4947777;29;20307;-90
2022/03/04 03:38:42;;;;;;;;;;;9.20;99.90;;;;;;4951446;29;20354;-90
2022/03/04 03:41:08;;;;;;;;;;;9.20;99.90;;;;;;4969145;28;19910;-90
2022/03/04 03:43:33;;;;;;;;;;;9.20;99.90;;;;;;4967860;28;19917;-90
2022/03/04 03:45:59;;;;;;;;;;;9.20;99.90;;;;;;4961527;28;20375;-90
2022/03/04 03:48:24;;;;;;;;;;;9.20;99.90;;;;;;4969252;28;20041;-91
2022/03/04 03:50:50;;;;;;;;;;;9.30;99.90;;;;;;4959366;28;19911;-91
2022/03/04 03:53:16;;;;;;;;;;;9.20;99.90;;;;;;4957776;28;19949;-90
2022/03/04 03:55:42;;;;;;;;;;;9.20;99.90;;;;;;4965893;28;19918;-90
2022/03/04 03:58:07;;;;;;;;;;;9.20;99.90;;;;;;4938479;28;20335;-90
2022/03/04 04:00:34;;;;;;;;;;;9.30;99.90;;;;;;4962089;28;19911;-90
2022/03/04 04:03:00;;;;;;;;;;;9.20;99.90;;;;;;4961833;28;20421;-91
2022/03/04 04:05:26;;;;;;;;;;;9.20;99.90;;;;;;4944147;28;19911;-90
2022/03/04 04:07:51;;;;;;;;;;;9.20;99.90;;;;;;4961427;28;19910;-92
2022/03/04 04:10:17;;;;;;;;;;;9.20;99.90;;;;;;4960248;28;20414;-89
2022/03/04 04:12:42;;;;;;;;;;;9.20;99.90;;;;;;4960255;28;19922;-90
2022/03/04 04:15:08;;;;;;;;;;;9.20;99.90;;;;;;4970129;28;20014;-91
2022/03/04 04:17:34;;;;;;;;;;;9.20;99.90;;;;;;4967726;28;19965;-90
2022/03/04 04:20:00;;;;;;;;;;;9.20;99.90;;;;;;4955266;28;20439;-90
2022/03/04 04:22:25;;;;;;;;;;;9.30;99.90;;;;;;4965600;28;19910;-89
2022/03/04 04:24:51;;;;;;;;;;;9.20;99.90;;;;;;4960634;28;19998;-90
2022/03/04 04:27:16;;;;;;;;;;;9.20;99.90;;;;;;4966725;28;20263;-90
2022/03/04 04:29:45;;;;;;;;;;;9.20;99.90;;;;;;4955987;28;19958;-90
2022/03/04 04:32:10;;;;;;;;;;;9.20;99.90;;;;;;4971152;28;19961;-90
2022/03/04 04:34:36;;;;;;;;;;;9.20;99.90;;;;;;4966780;28;19918;-90
2022/03/04 04:37:02;;;;;;;;;;;9.20;99.90;;;;;;4967768;28;20371;-90
2022/03/04 04:39:27;;;;;;;;;;;9.20;99.90;;;;;;4947327;28;20363;-89
2022/03/04 04:41:53;;;;;;;;;;;9.10;99.90;;;;;;4954158;28;20397;-90
2022/03/04 04:44:18;;;;;;;;;;;9.10;99.90;;;;;;4961932;28;19917;-89
2022/03/04 04:46:44;;;;;;;;;;;9.20;99.90;;;;;;4963935;28;20004;-89
2022/03/04 04:49:09;;;;;;;;;;;9.20;99.90;;;;;;4955543;28;19919;-90
2022/03/04 04:51:35;;;;;;;;;;;9.10;99.90;;;;;;4955472;28;20379;-89
2022/03/04 04:54:01;;;;;;;;;;;9.10;99.90;;;;;;4961402;28;19938;-89
2022/03/04 04:56:26;;;;;;;;;;;9.10;99.90;;;;;;4972172;28;19914;-90
2022/03/04 04:58:52;;;;;;;;;;;9.10;99.90;;;;;;4966687;28;19921;-89
2022/03/04 05:01:18;;;;;;;;;;;9.10;99.90;;;;;;4955702;28;19914;-90
2022/03/04 05:03:44;;;;;;;;;;;9.10;99.90;;;;;;4938799;28;19910;-89
2022/03/04 05:06:09;;;;;;;;;;;9.10;99.90;;;;;;4953053;28;19993;-90
2022/03/04 05:08:35;;;;;;;;;;;9.10;99.90;;;;;;4961290;28;19907;-90
2022/03/04 05:11:01;;;;;;;;;;;9.10;99.90;;;;;;4935710;29;20355;-90
2022/03/04 05:13:26;;;;;;;;;;;9.10;99.90;;;;;;4956038;28;19911;-90
2022/03/04 05:15:52;;;;;;;;;;;9.10;99.90;;;;;;4958885;28;20383;-90
2022/03/04 05:18:17;;;;;;;;;;;9.10;99.90;;;;;;4959198;28;19915;-88
2022/03/04 05:20:43;;;;;;;;;;;9.10;99.90;;;;;;4953839;28;20034;-90
2022/03/04 05:23:09;;;;;;;;;;;9.10;99.90;;;;;;4946885;28;19910;-91
2022/03/04 05:25:34;;;;;;;;;;;9.20;99.90;;;;;;4954812;28;20298;-90
2022/03/04 05:28:00;;;;;;;;;;;9.10;99.90;;;;;;4955199;28;19945;-91
2022/03/04 05:30:26;;;;;;;;;;;9.10;99.90;;;;;;4955119;28;19972;-91
2022/03/04 05:32:51;;;;;;;;;;;9.20;99.90;;;;;;4945944;28;20382;-90
2022/03/04 05:35:17;;;;;;;;;;;9.20;99.90;;;;;;4953664;28;19927;-91
2022/03/04 05:37:43;;;;;;;;;;;9.20;99.90;;;;;;4950757;28;19917;-91
2022/03/04 05:40:09;;;;;;;;;;;9.10;99.90;;;;;;4964338;28;19937;-91
2022/03/04 05:42:35;;;;;;;;;;;9.10;99.90;;;;;;4974961;28;19910;-92
2022/03/04 05:45:01;;;;;;;;;;;9.10;99.90;;;;;;4954850;28;19941;-90
2022/03/04 05:47:26;;;;;;;;;;;9.10;99.90;;;;;;4953943;28;19925;-88
2022/03/04 05:50:05;;;;;;;;;;;;;;;;;;;;;
2022/03/04 05:52:39;;;;;;;;;;;9.00;99.90;;;;;;4966729;28;19945;-94
2022/03/04 05:58:20;;;;;;;;;;;;;;;;;;;;;
2022/03/04 06:01:02;;;;;;;;;;;;;;;;;;;;;
2022/03/04 06:03:43;;;;;;;;;;;;;;;;;;;;;
2022/03/04 06:06:51;;;;;;;;;;;9.00;99.90;;;;;;4964365;28;20004;-94
2022/03/04 06:09:56;;;;;;;;;;;9.00;99.90;;;;;;4968334;28;19914;-95
2022/03/04 06:12:29;;;;;;;;;;;9.00;99.90;;;;;;4977097;28;20172;-94
2022/03/04 06:30:09;;;;;;;;;;;9.00;99.90;;;;;;5317615;23;19922;-92
2022/03/04 06:32:35;;;;;;;;;;;9.00;99.90;;;;;;4963191;28;19910;-92
2022/03/04 06:35:00;;;;;;;;;;;9.00;99.90;;;;;;4962303;28;20418;-80
2022/03/04 06:37:26;;;;;;;;;;;9.00;99.90;;;;;;4956155;28;19938;-80
2022/03/04 06:39:51;;;;;;;;;;;9.00;99.90;;;;;;4970694;28;19922;-80
2022/03/04 06:42:17;;;;;;;;;;;9.00;99.90;;;;;;4974412;28;19925;-78
2022/03/04 06:44:42;;;;;;;;;;;9.00;99.90;;;;;;4974203;28;20013;-80
2022/03/04 06:47:08;;;;;;;;;;;8.90;99.90;;;;;;4970860;28;20375;-80
2022/03/04 06:49:35;;;;;;;;;;;8.90;99.90;;;;;;4972824;28;20290;-80
2022/03/04 06:52:01;;;;;;;;;;;8.90;99.90;;;;;;4973678;28;19910;-80
2022/03/04 06:54:26;;;;;;;;;;;8.90;99.90;;;;;;4974442;28;19972;-80
2022/03/04 06:56:52;;;;;;;;;;;8.90;99.90;;;;;;4973123;28;19921;-80
2022/03/04 06:59:17;;;;;;;;;;;8.90;99.90;;;;;;4972520;28;20009;-80
2022/03/04 07:01:43;;;;;;;;;;;8.90;99.90;;;;;;4974267;28;20009;-80
2022/03/04 07:04:08;;;;;;;;;;;8.90;99.90;;;;;;4974257;28;19910;-80
2022/03/04 07:06:34;;;;;;;;;;;8.90;99.90;;;;;;4975003;28;20377;-80
2022/03/04 07:09:00;;;;;;;;;;;8.90;99.90;;;;;;4973552;28;19952;-79
2022/03/04 07:11:25;;;;;;;;;;;8.90;99.90;;;;;;4973869;28;19918;-83
2022/03/04 07:13:51;;;;;;;;;;;8.90;99.90;;;;;;4973677;28;20021;-85
2022/03/04 07:16:16;;;;;;;;;;;8.90;99.90;;;;;;4969445;28;19949;-83
2022/03/04 07:18:42;;;;;;;;;;;8.90;99.90;;;;;;4973937;28;19953;-85
2022/03/04 07:21:08;;;;;;;;;;;8.90;99.90;;;;;;4974159;28;19910;-84
2022/03/04 07:23:33;;;;;;;;;;;8.90;99.90;;;;;;4956865;28;19910;-84
2022/03/04 07:25:59;;;;;;;;;;;8.90;99.90;;;;;;4973393;28;19921;-83
2022/03/04 07:28:24;;;;;;;;;;;8.90;99.90;;;;;;4972962;28;19910;-83
2022/03/04 07:30:50;;;;;;;;;;;8.90;99.90;;;;;;4974667;28;19922;-86
2022/03/04 07:33:17;;;;;;;;;;;8.90;99.90;;;;;;4967449;28;19918;-83
2022/03/04 07:35:45;;;;;;;;;;;8.90;99.90;;;;;;4973138;28;20387;-87
2022/03/04 07:38:14;;;;;;;;;;;8.90;99.90;;;;;;4968542;28;19917;-88
2022/03/04 07:40:40;;;;;;;;;;;9.00;99.90;;;;;;4950349;28;19937;-84
2022/03/04 07:43:05;;;;;;;;;;;8.90;99.90;;;;;;4974575;28;20363;-87
2022/03/04 07:45:31;;;;;;;;;;;8.80;99.90;;;;;;4974410;28;20374;-84
2022/03/04 07:47:56;;;;;;;;;;;8.90;99.90;;;;;;4974574;28;19910;-83
2022/03/04 07:50:22;;;;;;;;;;;8.90;99.90;;;;;;4974529;28;20005;-90
2022/03/04 07:52:47;;;;;;;;;;;9.00;99.90;;;;;;4974505;28;20005;-90
2022/03/04 07:55:14;;;;;;;;;;;9.00;99.90;;;;;;4974198;28;19929;-86
2022/03/04 07:57:40;;;;;;;;;;;9.10;99.90;;;;;;4973987;28;19918;-84
2022/03/04 08:00:08;;;;;;;;;;;9.00;99.90;;;;;;4973781;28;19917;-83
2022/03/04 08:02:34;;;;;;;;;;;9.10;99.90;;;;;;4973343;28;20008;-85
2022/03/04 08:05:00;;;;;;;;;;;9.00;99.90;;;;;;4973638;28;19957;-84
2022/03/04 08:07:25;;;;;;;;;;;9.10;99.90;;;;;;4973495;28;20147;-90
2022/03/04 08:09:51;;;;;;;;;;;9.10;99.90;;;;;;4973572;28;20154;-84
2022/03/04 08:12:17;;;;;;;;;;;9.00;99.90;;;;;;4973108;28;20413;-86
2022/03/04 08:14:42;;;;;;;;;;;9.10;99.90;;;;;;4973546;28;20405;-87
2022/03/04 08:17:08;;;;;;;;;;;9.10;99.90;;;;;;4972617;28;19910;-84
2022/03/04 08:19:35;;;;;;;;;;;9.00;99.90;;;;;;4972206;28;19926;-86
2022/03/04 08:22:01;;;;;;;;;;;9.10;99.90;;;;;;4972383;28;19915;-85
2022/03/04 08:24:27;;;;;;;;;;;9.00;99.90;;;;;;4972221;28;19924;-76
2022/03/04 08:26:52;;;;;;;;;;;9.00;99.90;;;;;;4972010;28;19934;-78
2022/03/04 08:29:18;;;;;;;;;;;9.10;99.90;;;;;;4971833;28;19922;-77
2022/03/04 08:31:45;;;;;;;;;;;9.00;99.90;;;;;;4972283;28;19940;-78
2022/03/04 08:34:10;;;;;;;;;;;9.10;99.90;;;;;;4972303;28;19919;-79
2022/03/04 08:36:36;;;;;;;;;;;9.10;99.90;;;;;;4971860;28;19910;-77
2022/03/04 08:39:03;;;;;;;;;;;9.20;99.90;;;;;;4972229;28;19946;-77
2022/03/04 08:41:29;;;;;;;;;;;9.20;99.90;;;;;;4965596;28;19910;-77
2022/03/04 08:43:55;;;;;;;;;;;9.30;99.90;;;;;;4971555;28;19944;-77
2022/03/04 08:46:21;;;;;;;;;;;9.40;99.90;;;;;;4971258;28;19950;-77
2022/03/04 08:48:47;;;;;;;;;;;9.50;99.90;;;;;;4972235;28;19910;-77
2022/03/04 08:51:12;;;;;;;;;;;9.60;99.90;;;;;;4972143;28;19910;-85
2022/03/04 08:53:38;;;;;;;;;;;9.60;99.90;;;;;;4971859;28;19918;-83
2022/03/04 08:56:04;;;;;;;;;;;9.60;99.90;;;;;;4953551;28;20003;-85
2022/03/04 08:58:29;;;;;;;;;;;9.60;99.90;;;;;;4971848;28;20318;-86
2022/03/04 09:00:55;;;;;;;;;;;9.60;99.90;;;;;;4971999;28;19917;-82
2022/03/04 09:03:20;;;;;;;;;;;9.60;99.90;;;;;;4971699;28;19910;-84
2022/03/04 09:05:46;;;;;;;;;;;9.70;99.90;;;;;;4971775;28;19910;-83
2022/03/04 09:08:12;;;;;;;;;;;9.70;99.90;;;;;;4971775;28;19910;-82
2022/03/04 09:10:38;;;;;;;;;;;9.90;99.90;;;;;;4971826;28;19914;-83
2022/03/04 09:13:04;;;;;;;;;;;10.10;99.90;;;;;;4971646;28;20331;-83
2022/03/04 09:15:30;;;;;;;;;;;10.20;99.90;;;;;;4970954;28;19945;-82
2022/03/04 09:17:55;;;;;;;;;;;10.20;99.90;;;;;;4972185;28;19910;-86
2022/03/04 09:20:21;;;;;;;;;;;10.20;99.90;;;;;;4972123;28;19949;-83
2022/03/04 09:22:47;;;;;;;;;;;10.10;99.90;;;;;;4965581;28;20294;-85
2022/03/04 09:25:13;;;;;;;;;;;10.10;99.90;;;;;;4956878;28;19964;-86
2022/03/04 09:27:40;;;;;;;;;;;10.20;99.90;;;;;;4971449;28;19910;-84
2022/03/04 09:30:06;;;;;;;;;;;10.20;99.90;;;;;;4969886;28;19962;-89
2022/03/04 09:32:31;;;;;;;;;;;10.30;99.90;;;;;;4971220;28;19960;-85
2022/03/04 09:34:57;;;;;;;;;;;10.30;99.90;;;;;;4971649;28;19962;-88
2022/03/04 09:37:23;;;;;;;;;;;10.30;99.90;;;;;;4971396;28;19911;-85
2022/03/04 09:39:48;;;;;;;;;;;10.30;99.90;;;;;;4953445;28;19910;-88
2022/03/04 09:42:14;;;;;;;;;;;10.30;99.90;;;;;;4971085;28;19921;-85
2022/03/04 09:44:39;;;;;;;;;;;10.30;99.90;;;;;;4971725;28;20237;-85
2022/03/04 09:47:05;;;;;;;;;;;10.40;99.90;;;;;;4971220;28;19910;-87
2022/03/04 09:49:32;;;;;;;;;;;10.50;99.90;;;;;;4971427;28;19947;-86
2022/03/04 09:51:57;;;;;;;;;;;10.50;99.90;;;;;;4971896;28;19911;-86
2022/03/04 09:54:27;;;;;;;;;;;10.60;99.90;;;;;;4971701;28;19918;-90
2022/03/04 09:56:52;;;;;;;;;;;10.70;99.90;;;;;;4970904;28;19917;-87
2022/03/04 09:59:18;;;;;;;;;;;10.70;99.90;;;;;;4970918;28;19910;-84
2022/03/04 10:01:44;;;;;;;;;;;10.80;99.90;;;;;;4971739;28;19952;-86
2022/03/04 10:04:11;;;;;;;;;;;10.80;99.90;;;;;;4971717;28;19914;-87
2022/03/04 10:06:38;;;;;;;;;;;10.90;99.90;;;;;;4971454;28;20386;-83
2022/03/04 10:09:04;;;;;;;;;;;10.80;99.90;;;;;;4977034;28;20005;-84
2022/03/04 10:11:31;;;;;;;;;;;10.80;99.90;;;;;;4979258;28;20390;-85
2022/03/04 10:13:57;;;;;;;;;;;10.70;99.90;;;;;;4982370;28;19925;-85
2022/03/04 10:16:27;;;;;;;;;;;10.70;99.90;;;;;;4984484;28;19945;-84
2022/03/04 10:19:08;;;;;;;;;;;10.60;99.90;;;;;;4981369;28;19961;-85
2022/03/04 10:21:50;;;;;;;;;;;10.60;99.90;;;;;;4983929;28;19911;-85
2022/03/04 10:24:18;;;;;;;;;;;10.70;99.90;;;;;;4988902;28;19910;-85
2022/03/04 10:26:44;;;;;;;;;;;10.80;99.90;;;;;;4986542;28;19910;-85
2022/03/04 10:29:23;;;;;;;;;;;10.90;99.90;;;;;;4992569;28;19930;-84
2022/03/04 10:32:07;;;;;;;;;;;11.00;99.90;;;;;;5008335;28;19941;-85
2022/03/04 10:34:49;;;;;;;;;;;11.00;99.90;;;;;;4994289;28;19929;-86
2022/03/04 10:37:15;;;;;;;;;;;10.90;99.90;;;;;;4994095;28;19898;-86
2022/03/04 10:39:59;;;;;;;;;;;11.10;99.90;;;;;;4997586;28;19913;-85
2022/03/04 10:42:38;;;;;;;;;;;11.20;99.90;;;;;;4990385;28;19994;-85
2022/03/04 10:45:06;;;;;;;;;;;11.10;99.90;;;;;;4978878;28;19917;-85
2022/03/04 10:47:44;;;;;;;;;;;11.20;99.90;;;;;;4996497;28;20421;-85
2022/03/04 10:50:09;;;;;;;;;;;11.30;99.90;;;;;;4991361;28;19926;-86
2022/03/04 10:52:46;;;;;;;;;;;11.30;99.90;;;;;;4993737;28;19980;-85
2022/03/04 10:55:12;;;;;;;;;;;11.40;99.90;;;;;;4995945;28;20074;-86
2022/03/04 10:57:41;;;;;;;;;;;11.40;99.90;;;;;;4990522;28;19941;-86
2022/03/04 11:00:07;;;;;;;;;;;11.40;99.90;;;;;;4973910;28;19910;-86
2022/03/04 11:02:41;;;;;;;;;;;11.40;99.90;;;;;;4976698;28;19914;-86
2022/03/04 11:05:06;;;;;;;;;;;11.50;99.90;;;;;;4958074;28;19914;-86
2022/03/04 11:07:32;;;;;;;;;;;11.40;99.90;;;;;;4974515;28;19968;-88
2022/03/04 11:09:58;;;;;;;;;;;11.50;99.90;;;;;;4974477;28;19937;-89
2022/03/04 11:12:23;;;;;;;;;;;11.50;99.90;;;;;;4974099;28;19914;-86
2022/03/04 11:14:49;;;;;;;;;;;11.70;99.90;;;;;;4990707;28;20402;-86
2022/03/04 11:17:15;;;;;;;;;;;11.80;99.90;;;;;;4976571;28;19910;-87
2022/03/04 11:19:41;;;;;;;;;;;11.70;99.90;;;;;;4973395;28;19921;-87
2022/03/04 11:22:10;;;;;;;;;;;11.80;99.90;;;;;;4925641;29;19923;-89
2022/03/04 11:24:36;;;;;;;;;;;11.70;99.90;;;;;;4956983;29;19917;-87
2022/03/04 11:27:04;;;;;;;;;;;11.70;99.90;;;;;;4953959;29;19918;-90
2022/03/04 11:29:34;;;;;;;;;;;11.80;99.90;;;;;;4954812;29;19918;-87
2022/03/04 11:32:01;;;;;;;;;;;11.80;99.90;;;;;;4954621;29;20310;-89
2022/03/04 11:34:33;;;;;;;;;;;11.90;99.90;;;;;;4954614;29;20006;-87
2022/03/04 11:37:03;;;;;;;;;;;12.00;99.90;;;;;;4953076;29;20349;-89
2022/03/04 11:39:28;;;;;;;;;;;11.90;99.90;;;;;;4954860;29;20049;-88
2022/03/04 11:42:03;;;;;;;;;;;12.10;99.90;;;;;;4953999;29;19915;-86
2022/03/04 11:44:28;;;;;;;;;;;12.00;99.90;;;;;;4954678;29;20327;-88
2022/03/04 11:46:55;;;;;;;;;;;12.10;99.90;;;;;;4954066;29;19993;-87
2022/03/04 11:49:38;;;;;;;;;;;12.00;99.90;;;;;;4937345;29;20013;-85
2022/03/04 11:52:07;;;;;;;;;;;11.90;99.90;;;;;;4937291;29;20370;-87
2022/03/04 11:54:34;;;;;;;;;;;12.00;99.90;;;;;;4954381;29;19918;-85
2022/03/04 11:57:00;;;;;;;;;;;12.10;99.90;;;;;;4953564;29;20421;-86
2022/03/04 11:59:26;;;;;;;;;;;12.00;99.90;;;;;;4953073;29;19914;-84
2022/03/04 12:01:51;;;;;;;;;;;11.90;99.90;;;;;;4954189;29;19911;-87
2022/03/04 12:04:18;;;;;;;;;;;12.00;99.90;;;;;;4953923;29;20378;-86
2022/03/04 12:07:03;;;;;;;;;;;12.20;99.90;;;;;;4936599;29;20384;-86
2022/03/04 12:09:29;;;;;;;;;;;12.30;99.90;;;;;;4952757;29;19910;-87
2022/03/04 12:12:28;;;;;;;;;;;12.60;99.90;;;;;;4953675;29;19912;-85
2022/03/04 12:15:12;;;;;;;;;;;12.70;99.90;;;;;;4910431;29;19926;-86
2022/03/04 12:18:04;;;;;;;;;;;12.70;99.90;;;;;;4953947;29;20085;-86
2022/03/04 12:20:50;;;;;;;;;;;12.80;99.90;;;;;;4950273;29;19918;-86
2022/03/04 12:23:17;;;;;;;;;;;12.90;99.90;;;;;;4953523;29;20368;-85
2022/03/04 12:25:51;;;;;;;;;;;13.10;99.90;;;;;;4953280;29;19910;-85
2022/03/04 12:28:17;;;;;;;;;;;13.20;99.90;;;;;;4936291;29;20001;-86
2022/03/04 12:30:43;;;;;;;;;;;12.90;99.90;;;;;;4952688;28;20384;-86
2022/03/04 12:33:09;;;;;;;;;;;12.80;99.90;;;;;;4936005;29;19910;-86
2022/03/04 12:35:35;;;;;;;;;;;12.80;99.90;;;;;;4935744;29;20035;-85
2022/03/04 12:38:01;;;;;;;;;;;13.00;99.90;;;;;;4953007;29;20392;-79
2022/03/04 12:40:28;;;;;;;;;;;13.00;99.90;;;;;;4952797;29;19914;-87
2022/03/04 12:42:55;;;;;;;;;;;13.00;99.90;;;;;;4952476;29;19915;-86
2022/03/04 12:45:20;;;;;;;;;;;13.00;99.90;;;;;;4952549;29;19962;-86
2022/03/04 12:47:46;;;;;;;;;;;12.90;99.90;;;;;;4953594;29;20024;-87
2022/03/04 12:50:11;;;;;;;;;;;13.00;99.90;;;;;;4953349;29;19921;-86
2022/03/04 12:52:44;;;;;;;;;;;12.90;99.90;;;;;;5024654;27;2417469;-86
2022/03/04 12:55:10;;;;;;;;;;;12.80;99.90;;;;;;5104427;28;20324;-84
2022/03/04 12:57:39;;;;;;;;;;;12.80;99.90;;;;;;5095044;28;19915;-85
2022/03/04 13:00:05;;;;;;;;;;;12.90;99.90;;;;;;5088478;28;19908;-89
2022/03/04 13:02:34;;;;;;;;;;;13.20;99.90;;;;;;5088335;28;19909;-86
2022/03/04 13:05:00;;;;;;;;;;;13.20;99.90;;;;;;5087781;28;19914;-86
2022/03/04 13:07:26;;;;;;;;;;;13.20;99.90;;;;;;5101636;28;20336;-85
2022/03/04 13:09:51;;;;;;;;;;;13.40;99.90;;;;;;5087911;28;19916;-86
2022/03/04 13:12:23;;;;;;;;;;;13.30;99.90;;;;;;5090719;28;19916;-91
2022/03/04 13:14:50;;;;;;;;;;;13.30;99.90;;;;;;5100871;28;19908;-86
2022/03/04 13:17:15;;;;;;;;;;;13.20;99.90;;;;;;5088344;28;19919;-87
2022/03/04 13:19:41;;;;;;;;;;;13.20;99.90;;;;;;5088028;28;19909;-87
2022/03/04 13:22:09;;;;;;;;;;;13.30;99.90;;;;;;5088156;28;20403;-86
2022/03/04 13:24:36;;;;;;;;;;;13.30;99.90;;;;;;5098309;28;20047;-86
2022/03/04 13:27:05;;;;;;;;;;;13.30;99.90;;;;;;5109217;28;20253;-85
2022/03/04 13:29:30;;;;;;;;;;;13.50;99.90;;;;;;5096216;28;20011;-87
2022/03/04 13:32:04;;;;;;;;;;;13.80;99.90;;;;;;5105239;28;20011;-86
2022/03/04 13:34:29;;;;;;;;;;;13.80;99.90;;;;;;5088482;28;19938;-85
2022/03/04 13:36:58;;;;;;;;;;;13.80;99.90;;;;;;5093738;28;19915;-86
2022/03/04 13:39:28;;;;;;;;;;;13.80;99.90;;;;;;5091325;28;19908;-87
2022/03/04 13:42:13;;;;;;;;;;;13.90;99.90;;;;;;5088076;28;19908;-84
2022/03/04 13:44:50;;;;;;;;;;;14.20;99.90;;;;;;5107250;28;20245;-86
2022/03/04 13:47:26;;;;;;;;;;;14.20;99.90;;;;;;5106368;28;19908;-82
2022/03/04 13:49:52;;;;;;;;;;;14.00;99.90;;;;;;5087196;28;20126;-82
2022/03/04 13:52:17;;;;;;;;;;;13.90;99.90;;;;;;5100183;28;20478;-81
2022/03/04 13:54:49;;;;;;;;;;;13.90;99.90;;;;;;5106543;28;19997;-81
2022/03/04 13:57:24;;;;;;;;;;;13.80;99.90;;;;;;5086531;28;20368;-82
2022/03/04 13:59:50;;;;;;;;;;;13.70;99.90;;;;;;5087090;28;19912;-81
2022/03/04 14:02:15;;;;;;;;;;;13.60;99.90;;;;;;5083436;28;19915;-81
2022/03/04 14:04:51;;;;;;;;;;;13.60;99.90;;;;;;5073365;28;19908;-78
2022/03/04 14:07:18;;;;;;;;;;;13.50;99.90;;;;;;5073023;28;20015;-80
2022/03/04 14:09:44;;;;;;;;;;;13.40;99.90;;;;;;5072749;28;19916;-79
2022/03/04 14:12:10;;;;;;;;;;;13.60;99.90;;;;;;5072786;28;19923;-81
2022/03/04 14:14:35;;;;;;;;;;;13.50;99.90;;;;;;5074522;28;20301;-80
2022/03/04 14:17:03;;;;;;;;;;;13.60;99.90;;;;;;5072299;28;20474;-86
2022/03/04 14:19:29;;;;;;;;;;;13.80;99.90;;;;;;5074771;28;19935;-80
2022/03/04 14:21:54;;;;;;;;;;;13.90;99.90;;;;;;5092940;28;20392;-80
2022/03/04 14:24:20;;;;;;;;;;;14.20;99.90;;;;;;5085506;28;19919;-80
2022/03/04 14:26:46;;;;;;;;;;;14.20;99.90;;;;;;5073257;28;19919;-80
2022/03/04 14:29:13;;;;;;;;;;;14.40;99.90;;;;;;5093505;28;20373;-91
2022/03/04 14:31:39;;;;;;;;;;;14.40;99.90;;;;;;5075949;28;19959;-91
2022/03/04 14:34:04;;;;;;;;;;;14.30;99.90;;;;;;5076521;28;20400;-90
2022/03/04 14:36:30;;;;;;;;;;;14.10;99.90;;;;;;5094121;28;19919;-91
2022/03/04 14:38:56;;;;;;;;;;;14.20;99.90;;;;;;5071909;28;19920;-90
2022/03/04 14:41:21;;;;;;;;;;;14.50;99.90;;;;;;5075747;28;19986;-91
2022/03/04 14:43:47;;;;;;;;;;;14.60;99.90;;;;;;5075084;28;19915;-90
2022/03/04 14:46:12;;;;;;;;;;;14.80;99.90;;;;;;5071889;28;20018;-90
2022/03/04 14:48:39;;;;;;;;;;;14.70;99.90;;;;;;5086544;28;19916;-90